sensor_id;sensor_type;location;lat;lon;timestamp;temperature;humidity
45233;DHT22;30969;51.052;17.056;2022-12-11T00:04:25;3.00;78.30
45233;DHT22;30969;51.052;17.056;2022-12-11T00:09:29;2.90;78.20
45233;DHT22;30969;51.052;17.056;2022-12-11T00:14:34;2.90;78.40
45233;DHT22;30969;51.052;17.056;2022-12-11T00:19:38;2.90;78.50
45233;DHT22;30969;51.052;17.056;2022-12-11T00:24:41;2.90;78.80
45233;DHT22;30969;51.052;17.056;2022-12-11T00:29:46;2.90;78.60
45233;DHT22;30969;51.052;17.056;2022-12-11T00:34:49;2.90;78.50
45233;DHT22;30969;51.052;17.056;2022-12-11T00:39:54;2.90;78.90
45233;DHT22;30969;51.052;17.056;2022-12-11T00:44:59;2.90;79.00
45233;DHT22;30969;51.052;17.056;2022-12-11T00:50:02;2.90;79.00
45233;DHT22;30969;51.052;17.056;2022-12-11T01:01:56;2.90;78.90
45233;DHT22;30969;51.052;17.056;2022-12-11T01:06:59;2.90;79.00
45233;DHT22;30969;51.052;17.056;2022-12-11T01:12:03;3.00;79.00
45233;DHT22;30969;51.052;17.056;2022-12-11T01:17:08;3.00;78.80
45233;DHT22;30969;51.052;17.056;2022-12-11T01:22:12;3.00;78.80
45233;DHT22;30969;51.052;17.056;2022-12-11T01:27:15;3.10;78.80
45233;DHT22;30969;51.052;17.056;2022-12-11T01:32:20;3.10;78.70
45233;DHT22;30969;51.052;17.056;2022-12-11T01:37:24;3.00;78.60
45233;DHT22;30969;51.052;17.056;2022-12-11T01:42:28;2.90;78.70
45233;DHT22;30969;51.052;17.056;2022-12-11T01:47:32;2.90;78.80
45233;DHT22;30969;51.052;17.056;2022-12-11T01:52:36;2.80;79.00
45233;DHT22;30969;51.052;17.056;2022-12-11T01:57:42;2.70;79.40
45233;DHT22;30969;51.052;17.056;2022-12-11T02:02:47;2.70;79.80
45233;DHT22;30969;51.052;17.056;2022-12-11T02:07:54;2.70;79.80
45233;DHT22;30969;51.052;17.056;2022-12-11T02:13:01;2.60;80.00
45233;DHT22;30969;51.052;17.056;2022-12-11T02:18:15;2.50;80.20
45233;DHT22;30969;51.052;17.056;2022-12-11T02:23:38;2.50;80.50
45233;DHT22;30969;51.052;17.056;2022-12-11T02:28:48;2.40;80.80
45233;DHT22;30969;51.052;17.056;2022-12-11T02:33:58;2.40;80.90
45233;DHT22;30969;51.052;17.056;2022-12-11T02:39:04;2.40;80.90
45233;DHT22;30969;51.052;17.056;2022-12-11T02:44:13;2.30;80.90
45233;DHT22;30969;51.052;17.056;2022-12-11T02:49:20;2.30;81.20
45233;DHT22;30969;51.052;17.056;2022-12-11T02:54:26;2.30;81.20
45233;DHT22;30969;51.052;17.056;2022-12-11T02:59:34;2.20;81.10
45233;DHT22;30969;51.052;17.056;2022-12-11T03:04:39;2.20;81.30
45233;DHT22;30969;51.052;17.056;2022-12-11T03:09:45;2.30;81.40
45233;DHT22;30969;51.052;17.056;2022-12-11T03:14:50;2.30;81.10
45233;DHT22;30969;51.052;17.056;2022-12-11T03:19:59;2.30;80.90
45233;DHT22;30969;51.052;17.056;2022-12-11T03:25:08;2.40;80.90
45233;DHT22;30969;51.052;17.056;2022-12-11T03:30:16;2.30;80.40
45233;DHT22;30969;51.052;17.056;2022-12-11T03:35:24;2.20;81.00
45233;DHT22;30969;51.052;17.056;2022-12-11T03:40:31;2.20;81.30
45233;DHT22;30969;51.052;17.056;2022-12-11T03:45:38;2.20;81.30
45233;DHT22;30969;51.052;17.056;2022-12-11T03:50:42;2.20;81.30
45233;DHT22;30969;51.052;17.056;2022-12-11T03:55:47;2.30;81.10
45233;DHT22;30969;51.052;17.056;2022-12-11T04:00:53;2.20;81.00
45233;DHT22;30969;51.052;17.056;2022-12-11T04:05:56;2.10;81.10
45233;DHT22;30969;51.052;17.056;2022-12-11T04:11:02;2.10;81.70
45233;DHT22;30969;51.052;17.056;2022-12-11T04:16:24;2.10;81.70
45233;DHT22;30969;51.052;17.056;2022-12-11T04:21:28;2.00;82.00
45233;DHT22;30969;51.052;17.056;2022-12-11T04:26:57;1.90;82.60
45233;DHT22;30969;51.052;17.056;2022-12-11T04:32:02;1.80;83.10
45233;DHT22;30969;51.052;17.056;2022-12-11T04:37:06;1.80;83.20
45233;DHT22;30969;51.052;17.056;2022-12-11T04:42:10;1.80;83.30
45233;DHT22;30969;51.052;17.056;2022-12-11T04:47:14;1.80;84.10
45233;DHT22;30969;51.052;17.056;2022-12-11T04:52:18;1.90;82.90
45233;DHT22;30969;51.052;17.056;2022-12-11T04:57:22;1.80;82.70
45233;DHT22;30969;51.052;17.056;2022-12-11T05:02:26;1.90;82.50
45233;DHT22;30969;51.052;17.056;2022-12-11T05:07:30;1.80;82.20
45233;DHT22;30969;51.052;17.056;2022-12-11T05:12:33;1.80;82.90
45233;DHT22;30969;51.052;17.056;2022-12-11T05:17:38;1.70;82.00
45233;DHT22;30969;51.052;17.056;2022-12-11T05:22:42;1.70;82.00
45233;DHT22;30969;51.052;17.056;2022-12-11T05:27:45;1.60;81.90
45233;DHT22;30969;51.052;17.056;2022-12-11T05:32:51;1.60;82.00
45233;DHT22;30969;51.052;17.056;2022-12-11T05:37:54;1.50;81.80
45233;DHT22;30969;51.052;17.056;2022-12-11T05:42:59;1.50;81.90
45233;DHT22;30969;51.052;17.056;2022-12-11T05:48:04;1.50;81.70
45233;DHT22;30969;51.052;17.056;2022-12-11T05:53:08;1.50;81.40
45233;DHT22;30969;51.052;17.056;2022-12-11T05:58:11;1.40;81.40
45233;DHT22;30969;51.052;17.056;2022-12-11T06:03:16;1.50;81.60
45233;DHT22;30969;51.052;17.056;2022-12-11T06:08:19;1.40;81.40
45233;DHT22;30969;51.052;17.056;2022-12-11T06:13:23;1.40;81.40
45233;DHT22;30969;51.052;17.056;2022-12-11T06:18:28;1.50;81.30
45233;DHT22;30969;51.052;17.056;2022-12-11T06:23:31;1.50;81.10
45233;DHT22;30969;51.052;17.056;2022-12-11T06:28:35;1.50;80.70
45233;DHT22;30969;51.052;17.056;2022-12-11T06:33:40;1.50;80.90
45233;DHT22;30969;51.052;17.056;2022-12-11T06:38:44;1.40;80.50
45233;DHT22;30969;51.052;17.056;2022-12-11T06:43:48;1.50;80.70
45233;DHT22;30969;51.052;17.056;2022-12-11T06:48:54;1.50;80.30
45233;DHT22;30969;51.052;17.056;2022-12-11T06:53:57;1.60;80.00
45233;DHT22;30969;51.052;17.056;2022-12-11T06:59:00;1.50;79.70
45233;DHT22;30969;51.052;17.056;2022-12-11T07:04:10;1.50;80.10
45233;DHT22;30969;51.052;17.056;2022-12-11T07:09:13;1.50;79.80
45233;DHT22;30969;51.052;17.056;2022-12-11T07:14:17;1.40;80.00
45233;DHT22;30969;51.052;17.056;2022-12-11T07:19:22;1.40;80.10
45233;DHT22;30969;51.052;17.056;2022-12-11T07:24:26;1.40;80.00
45233;DHT22;30969;51.052;17.056;2022-12-11T07:29:29;1.40;79.80
45233;DHT22;30969;51.052;17.056;2022-12-11T07:34:34;1.50;80.10
45233;DHT22;30969;51.052;17.056;2022-12-11T07:39:38;1.50;79.80
45233;DHT22;30969;51.052;17.056;2022-12-11T07:44:41;1.50;79.80
45233;DHT22;30969;51.052;17.056;2022-12-11T07:49:47;1.50;79.60
45233;DHT22;30969;51.052;17.056;2022-12-11T07:54:50;1.50;79.40
45233;DHT22;30969;51.052;17.056;2022-12-11T07:59:54;1.50;79.20
45233;DHT22;30969;51.052;17.056;2022-12-11T08:04:58;1.50;78.90
45233;DHT22;30969;51.052;17.056;2022-12-11T08:10:03;1.50;78.90
45233;DHT22;30969;51.052;17.056;2022-12-11T08:15:08;1.50;78.70
45233;DHT22;30969;51.052;17.056;2022-12-11T08:20:14;1.50;78.30
45233;DHT22;30969;51.052;17.056;2022-12-11T08:25:17;1.40;77.80
45233;DHT22;30969;51.052;17.056;2022-12-11T08:30:21;1.40;78.20
45233;DHT22;30969;51.052;17.056;2022-12-11T08:35:25;1.30;77.50
45233;DHT22;30969;51.052;17.056;2022-12-11T08:40:29;1.30;77.70
45233;DHT22;30969;51.052;17.056;2022-12-11T08:45:32;1.20;77.40
45233;DHT22;30969;51.052;17.056;2022-12-11T08:50:37;1.10;77.30
45233;DHT22;30969;51.052;17.056;2022-12-11T08:55:41;1.10;77.30
45233;DHT22;30969;51.052;17.056;2022-12-11T09:00:44;1.10;77.20
45233;DHT22;30969;51.052;17.056;2022-12-11T09:05:49;1.10;77.00
45233;DHT22;30969;51.052;17.056;2022-12-11T09:10:53;1.10;76.70
45233;DHT22;30969;51.052;17.056;2022-12-11T09:15:56;1.10;76.10
45233;DHT22;30969;51.052;17.056;2022-12-11T09:21:03;1.10;75.80
45233;DHT22;30969;51.052;17.056;2022-12-11T09:26:09;1.00;76.10
45233;DHT22;30969;51.052;17.056;2022-12-11T09:31:14;1.10;76.30
45233;DHT22;30969;51.052;17.056;2022-12-11T09:36:20;1.00;76.10
45233;DHT22;30969;51.052;17.056;2022-12-11T09:41:36;1.00;76.00
45233;DHT22;30969;51.052;17.056;2022-12-11T09:46:41;1.00;75.90
45233;DHT22;30969;51.052;17.056;2022-12-11T09:51:48;1.10;76.10
45233;DHT22;30969;51.052;17.056;2022-12-11T09:57:00;1.10;76.50
45233;DHT22;30969;51.052;17.056;2022-12-11T10:02:16;1.10;76.30
45233;DHT22;30969;51.052;17.056;2022-12-11T10:07:29;1.10;75.80
45233;DHT22;30969;51.052;17.056;2022-12-11T10:12:43;1.10;75.80
45233;DHT22;30969;51.052;17.056;2022-12-11T10:17:48;1.20;75.90
45233;DHT22;30969;51.052;17.056;2022-12-11T10:22:54;1.20;76.20
45233;DHT22;30969;51.052;17.056;2022-12-11T10:27:59;1.20;76.20
45233;DHT22;30969;51.052;17.056;2022-12-11T10:33:19;1.10;75.30
45233;DHT22;30969;51.052;17.056;2022-12-11T10:38:28;1.00;75.00
45233;DHT22;30969;51.052;17.056;2022-12-11T10:43:34;1.00;74.70
45233;DHT22;30969;51.052;17.056;2022-12-11T10:48:44;1.00;74.60
45233;DHT22;30969;51.052;17.056;2022-12-11T10:53:56;0.90;74.00
45233;DHT22;30969;51.052;17.056;2022-12-11T10:59:12;0.90;72.90
45233;DHT22;30969;51.052;17.056;2022-12-11T11:04:29;0.90;73.20
45233;DHT22;30969;51.052;17.056;2022-12-11T11:09:35;0.90;72.90
45233;DHT22;30969;51.052;17.056;2022-12-11T11:14:38;0.90;73.30
45233;DHT22;30969;51.052;17.056;2022-12-11T11:19:45;0.90;73.40
45233;DHT22;30969;51.052;17.056;2022-12-11T11:24:54;0.90;73.40
45233;DHT22;30969;51.052;17.056;2022-12-11T11:30:01;0.80;73.40
45233;DHT22;30969;51.052;17.056;2022-12-11T11:35:19;0.90;73.40
45233;DHT22;30969;51.052;17.056;2022-12-11T11:40:27;0.80;73.10
45233;DHT22;30969;51.052;17.056;2022-12-11T11:45:36;0.80;73.50
45233;DHT22;30969;51.052;17.056;2022-12-11T11:50:44;0.80;73.90
45233;DHT22;30969;51.052;17.056;2022-12-11T11:55:53;0.80;73.40
45233;DHT22;30969;51.052;17.056;2022-12-11T12:01:00;0.80;73.30
45233;DHT22;30969;51.052;17.056;2022-12-11T12:06:11;0.80;73.20
45233;DHT22;30969;51.052;17.056;2022-12-11T12:11:25;0.80;73.50
45233;DHT22;30969;51.052;17.056;2022-12-11T12:16:39;0.80;73.40
45233;DHT22;30969;51.052;17.056;2022-12-11T12:22:07;0.80;73.60
45233;DHT22;30969;51.052;17.056;2022-12-11T12:27:21;0.80;73.80
45233;DHT22;30969;51.052;17.056;2022-12-11T12:32:56;0.80;73.90
45233;DHT22;30969;51.052;17.056;2022-12-11T12:38:10;0.80;74.00
45233;DHT22;30969;51.052;17.056;2022-12-11T12:43:49;0.70;74.10
45233;DHT22;30969;51.052;17.056;2022-12-11T12:48:56;0.70;74.20
45233;DHT22;30969;51.052;17.056;2022-12-11T12:54:02;0.70;74.40
45233;DHT22;30969;51.052;17.056;2022-12-11T12:59:22;0.70;74.70
45233;DHT22;30969;51.052;17.056;2022-12-11T13:04:34;0.70;74.90
45233;DHT22;30969;51.052;17.056;2022-12-11T13:10:00;0.70;74.60
45233;DHT22;30969;51.052;17.056;2022-12-11T13:15:23;0.70;74.90
45233;DHT22;30969;51.052;17.056;2022-12-11T13:20:28;0.70;74.50
45233;DHT22;30969;51.052;17.056;2022-12-11T13:25:45;0.60;74.30
45233;DHT22;30969;51.052;17.056;2022-12-11T13:31:05;0.60;74.10
45233;DHT22;30969;51.052;17.056;2022-12-11T13:36:26;0.60;73.30
45233;DHT22;30969;51.052;17.056;2022-12-11T13:41:34;0.50;73.40
45233;DHT22;30969;51.052;17.056;2022-12-11T13:46:39;0.50;73.50
45233;DHT22;30969;51.052;17.056;2022-12-11T13:51:51;0.50;73.20
45233;DHT22;30969;51.052;17.056;2022-12-11T13:56:58;0.50;73.40
45233;DHT22;30969;51.052;17.056;2022-12-11T14:02:11;0.60;73.80
45233;DHT22;30969;51.052;17.056;2022-12-11T14:07:22;0.60;73.90
45233;DHT22;30969;51.052;17.056;2022-12-11T14:12:27;0.60;73.90
45233;DHT22;30969;51.052;17.056;2022-12-11T14:17:34;0.70;74.80
45233;DHT22;30969;51.052;17.056;2022-12-11T14:22:37;0.70;75.30
45233;DHT22;30969;51.052;17.056;2022-12-11T14:27:46;0.60;75.70
45233;DHT22;30969;51.052;17.056;2022-12-11T14:32:54;0.60;75.90
45233;DHT22;30969;51.052;17.056;2022-12-11T14:38:02;0.60;75.90
45233;DHT22;30969;51.052;17.056;2022-12-11T14:43:13;0.60;75.50
45233;DHT22;30969;51.052;17.056;2022-12-11T14:48:22;0.60;75.00
45233;DHT22;30969;51.052;17.056;2022-12-11T14:53:31;0.60;74.10
45233;DHT22;30969;51.052;17.056;2022-12-11T14:58:39;0.40;73.40
45233;DHT22;30969;51.052;17.056;2022-12-11T15:03:46;0.40;73.60
45233;DHT22;30969;51.052;17.056;2022-12-11T15:08:50;0.50;73.60
45233;DHT22;30969;51.052;17.056;2022-12-11T15:13:55;0.50;73.20
45233;DHT22;30969;51.052;17.056;2022-12-11T15:19:01;0.50;73.20
45233;DHT22;30969;51.052;17.056;2022-12-11T15:24:05;0.60;73.60
45233;DHT22;30969;51.052;17.056;2022-12-11T15:29:24;0.70;73.30
45233;DHT22;30969;51.052;17.056;2022-12-11T15:34:33;0.60;73.30
45233;DHT22;30969;51.052;17.056;2022-12-11T15:39:36;0.60;73.30
45233;DHT22;30969;51.052;17.056;2022-12-11T15:44:41;0.50;73.20
45233;DHT22;30969;51.052;17.056;2022-12-11T15:49:46;0.50;73.40
45233;DHT22;30969;51.052;17.056;2022-12-11T15:54:49;0.50;73.20
45233;DHT22;30969;51.052;17.056;2022-12-11T15:59:54;0.50;72.70
45233;DHT22;30969;51.052;17.056;2022-12-11T16:04:58;0.40;72.60
45233;DHT22;30969;51.052;17.056;2022-12-11T16:10:03;0.40;72.90
45233;DHT22;30969;51.052;17.056;2022-12-11T16:15:07;0.40;72.20
45233;DHT22;30969;51.052;17.056;2022-12-11T16:20:13;0.50;72.00
45233;DHT22;30969;51.052;17.056;2022-12-11T16:25:17;0.40;71.80
45233;DHT22;30969;51.052;17.056;2022-12-11T16:30:20;0.50;72.10
45233;DHT22;30969;51.052;17.056;2022-12-11T16:35:25;0.40;71.70
45233;DHT22;30969;51.052;17.056;2022-12-11T16:40:30;0.30;72.10
45233;DHT22;30969;51.052;17.056;2022-12-11T16:45:34;0.30;72.50
45233;DHT22;30969;51.052;17.056;2022-12-11T16:50:40;0.30;72.50
45233;DHT22;30969;51.052;17.056;2022-12-11T16:55:43;0.30;72.50
45233;DHT22;30969;51.052;17.056;2022-12-11T17:00:48;0.30;72.50
45233;DHT22;30969;51.052;17.056;2022-12-11T17:05:53;0.30;72.50
45233;DHT22;30969;51.052;17.056;2022-12-11T17:10:57;0.30;72.80
45233;DHT22;30969;51.052;17.056;2022-12-11T17:16:03;0.30;72.70
45233;DHT22;30969;51.052;17.056;2022-12-11T17:21:10;0.40;73.00
45233;DHT22;30969;51.052;17.056;2022-12-11T17:26:14;0.50;73.20
45233;DHT22;30969;51.052;17.056;2022-12-11T17:31:18;0.60;73.30
45233;DHT22;30969;51.052;17.056;2022-12-11T17:36:23;0.60;73.30
45233;DHT22;30969;51.052;17.056;2022-12-11T17:41:26;0.60;73.30
45233;DHT22;30969;51.052;17.056;2022-12-11T17:46:30;0.50;73.60
45233;DHT22;30969;51.052;17.056;2022-12-11T17:51:35;0.60;74.10
45233;DHT22;30969;51.052;17.056;2022-12-11T17:56:38;0.60;74.10
45233;DHT22;30969;51.052;17.056;2022-12-11T18:01:42;0.60;74.30
45233;DHT22;30969;51.052;17.056;2022-12-11T18:06:47;0.60;74.50
45233;DHT22;30969;51.052;17.056;2022-12-11T18:11:50;0.50;75.00
45233;DHT22;30969;51.052;17.056;2022-12-11T18:16:54;0.50;75.50
45233;DHT22;30969;51.052;17.056;2022-12-11T18:21:59;0.50;76.10
45233;DHT22;30969;51.052;17.056;2022-12-11T18:27:02;0.50;76.40
45233;DHT22;30969;51.052;17.056;2022-12-11T18:32:06;0.60;76.70
45233;DHT22;30969;51.052;17.056;2022-12-11T18:37:11;0.60;77.10
45233;DHT22;30969;51.052;17.056;2022-12-11T18:42:15;0.60;77.10
45233;DHT22;30969;51.052;17.056;2022-12-11T18:47:34;0.50;77.50
45233;DHT22;30969;51.052;17.056;2022-12-11T18:52:40;0.60;77.90
45233;DHT22;30969;51.052;17.056;2022-12-11T18:57:43;0.50;77.90
45233;DHT22;30969;51.052;17.056;2022-12-11T19:02:49;0.60;78.30
45233;DHT22;30969;51.052;17.056;2022-12-11T19:07:54;0.50;78.50
45233;DHT22;30969;51.052;17.056;2022-12-11T19:12:57;0.60;79.00
45233;DHT22;30969;51.052;17.056;2022-12-11T19:18:01;0.70;78.50
45233;DHT22;30969;51.052;17.056;2022-12-11T19:23:06;0.70;78.20
45233;DHT22;30969;51.052;17.056;2022-12-11T19:28:10;0.70;78.30
45233;DHT22;30969;51.052;17.056;2022-12-11T19:33:14;0.60;78.60
45233;DHT22;30969;51.052;17.056;2022-12-11T19:38:20;0.50;79.20
45233;DHT22;30969;51.052;17.056;2022-12-11T19:43:24;0.50;79.90
45233;DHT22;30969;51.052;17.056;2022-12-11T19:48:27;0.60;79.90
45233;DHT22;30969;51.052;17.056;2022-12-11T19:53:33;0.60;79.50
45233;DHT22;30969;51.052;17.056;2022-12-11T19:58:37;0.60;79.60
45233;DHT22;30969;51.052;17.056;2022-12-11T20:03:41;0.60;79.70
45233;DHT22;30969;51.052;17.056;2022-12-11T20:08:46;0.60;79.80
45233;DHT22;30969;51.052;17.056;2022-12-11T20:13:50;0.70;79.80
45233;DHT22;30969;51.052;17.056;2022-12-11T20:18:56;0.70;79.60
45233;DHT22;30969;51.052;17.056;2022-12-11T20:24:01;0.70;79.70
45233;DHT22;30969;51.052;17.056;2022-12-11T20:29:05;0.70;79.70
45233;DHT22;30969;51.052;17.056;2022-12-11T20:34:09;0.70;79.90
45233;DHT22;30969;51.052;17.056;2022-12-11T20:39:14;0.70;79.80
45233;DHT22;30969;51.052;17.056;2022-12-11T20:44:18;0.70;79.80
45233;DHT22;30969;51.052;17.056;2022-12-11T20:49:22;0.60;80.10
45233;DHT22;30969;51.052;17.056;2022-12-11T20:54:27;0.60;80.20
45233;DHT22;30969;51.052;17.056;2022-12-11T20:59:31;0.60;80.30
45233;DHT22;30969;51.052;17.056;2022-12-11T21:04:36;0.60;80.40
45233;DHT22;30969;51.052;17.056;2022-12-11T21:09:42;0.50;80.60
45233;DHT22;30969;51.052;17.056;2022-12-11T21:14:45;0.60;80.50
45233;DHT22;30969;51.052;17.056;2022-12-11T21:19:48;0.50;80.30
45233;DHT22;30969;51.052;17.056;2022-12-11T21:24:53;0.50;80.90
45233;DHT22;30969;51.052;17.056;2022-12-11T21:29:57;0.60;80.70
45233;DHT22;30969;51.052;17.056;2022-12-11T21:35:00;0.60;80.70
45233;DHT22;30969;51.052;17.056;2022-12-11T21:40:06;0.60;80.90
45233;DHT22;30969;51.052;17.056;2022-12-11T21:45:10;0.50;81.00
45233;DHT22;30969;51.052;17.056;2022-12-11T21:50:33;0.50;81.50
45233;DHT22;30969;51.052;17.056;2022-12-11T21:55:40;0.40;81.90
45233;DHT22;30969;51.052;17.056;2022-12-11T22:00:44;0.40;82.50
45233;DHT22;30969;51.052;17.056;2022-12-11T22:05:47;0.40;82.70
45233;DHT22;30969;51.052;17.056;2022-12-11T22:10:52;0.40;82.70
45233;DHT22;30969;51.052;17.056;2022-12-11T22:15:56;0.50;83.00
45233;DHT22;30969;51.052;17.056;2022-12-11T22:21:00;0.50;83.00
45233;DHT22;30969;51.052;17.056;2022-12-11T22:26:05;0.50;82.90
45233;DHT22;30969;51.052;17.056;2022-12-11T22:31:10;0.50;83.30
45233;DHT22;30969;51.052;17.056;2022-12-11T22:36:13;0.60;83.00
45233;DHT22;30969;51.052;17.056;2022-12-11T22:41:23;0.50;84.30
45233;DHT22;30969;51.052;17.056;2022-12-11T22:46:28;0.40;83.70
45233;DHT22;30969;51.052;17.056;2022-12-11T22:51:32;0.50;83.90
45233;DHT22;30969;51.052;17.056;2022-12-11T22:56:37;0.50;83.90
45233;DHT22;30969;51.052;17.056;2022-12-11T23:01:41;0.50;84.00
45233;DHT22;30969;51.052;17.056;2022-12-11T23:06:44;0.40;84.20
45233;DHT22;30969;51.052;17.056;2022-12-11T23:11:50;0.40;84.40
45233;DHT22;30969;51.052;17.056;2022-12-11T23:16:53;0.40;84.80
45233;DHT22;30969;51.052;17.056;2022-12-11T23:21:57;0.30;85.10
45233;DHT22;30969;51.052;17.056;2022-12-11T23:27:02;0.30;85.40
45233;DHT22;30969;51.052;17.056;2022-12-11T23:32:05;0.30;85.50
45233;DHT22;30969;51.052;17.056;2022-12-11T23:37:08;0.40;85.40
45233;DHT22;30969;51.052;17.056;2022-12-11T23:42:13;0.40;85.20
45233;DHT22;30969;51.052;17.056;2022-12-11T23:47:17;0.40;85.20
45233;DHT22;30969;51.052;17.056;2022-12-11T23:52:20;0.40;85.20
45233;DHT22;30969;51.052;17.056;2022-12-11T23:57:26;0.50;85.20
